Time;durP1;ratioP1;P1;durP2;ratioP2;P2;SDS_P1;SDS_P2;PMS_P1;PMS_P2;Temp;Humidity;BMP_temperature;BMP_pressure;BME280_temperature;BME280_humidity;BME280_pressure;Samples;Min_cycle;Max_cycle;Signal;HPM_P1;HPM_P2
2024/01/27 00:00:09;;;;;;;17.60;5.72;;;20.50;58.00;;;;;;5031142;28;20123;-56
2024/01/27 00:02:37;;;;;;;20.10;6.10;;;20.50;57.90;;;;;;5030416;28;20025;-60
2024/01/27 00:05:03;;;;;;;25.40;5.82;;;20.50;57.90;;;;;;5030596;28;20013;-55
2024/01/27 00:07:29;;;;;;;21.63;5.63;;;20.50;57.60;;;;;;5031161;28;20111;-58
2024/01/27 00:09:55;;;;;;;16.95;6.55;;;20.50;57.40;;;;;;5031009;28;20533;-56
2024/01/27 00:12:21;;;;;;;17.05;5.95;;;20.50;58.00;;;;;;5030338;28;20477;-55
2024/01/27 00:14:47;;;;;;;22.48;6.60;;;20.50;57.20;;;;;;5030978;28;20446;-55
2024/01/27 00:17:13;;;;;;;22.48;6.57;;;20.50;56.70;;;;;;5033590;28;20060;-56
2024/01/27 00:19:38;;;;;;;16.10;5.20;;;20.50;57.30;;;;;;5032365;28;20022;-56
2024/01/27 00:22:04;;;;;;;15.60;5.45;;;20.50;56.70;;;;;;5033699;28;20029;-57
2024/01/27 00:24:30;;;;;;;21.13;5.55;;;20.50;56.30;;;;;;5033707;28;20021;-57
2024/01/27 00:26:56;;;;;;;16.50;5.13;;;20.50;56.70;;;;;;5034015;28;20392;-58
2024/01/27 00:29:22;;;;;;;18.60;5.57;;;20.50;56.40;;;;;;5039009;28;20492;-57
2024/01/27 00:31:49;;;;;;;21.85;6.25;;;20.50;55.80;;;;;;5033471;28;20076;-59
2024/01/27 00:34:15;;;;;;;20.20;6.25;;;20.50;57.30;;;;;;5033461;28;20063;-60
2024/01/27 00:36:43;;;;;;;20.08;6.45;;;20.50;57.30;;;;;;5033214;28;20053;-58
2024/01/27 00:39:09;;;;;;;20.23;5.75;;;20.50;57.80;;;;;;5033059;28;20036;-58
2024/01/27 00:41:34;;;;;;;17.85;5.40;;;20.50;58.00;;;;;;5033497;28;20481;-57
2024/01/27 00:44:00;;;;;;;24.00;5.45;;;20.50;57.90;;;;;;5034711;28;20029;-60
2024/01/27 00:46:26;;;;;;;18.15;5.70;;;20.50;57.90;;;;;;5038458;28;20047;-60
2024/01/27 00:48:52;;;;;;;21.40;5.82;;;20.50;58.20;;;;;;5032822;28;20029;-59
2024/01/27 00:51:17;;;;;;;19.67;5.88;;;20.50;57.90;;;;;;5015498;28;20032;-57
2024/01/27 00:53:43;;;;;;;19.30;5.18;;;20.50;57.90;;;;;;5032980;28;20033;-59
2024/01/27 00:56:09;;;;;;;17.13;5.30;;;20.50;58.20;;;;;;5033074;28;20025;-58
2024/01/27 00:58:35;;;;;;;22.95;4.75;;;20.50;58.10;;;;;;5032666;28;20370;-60
2024/01/27 01:01:01;;;;;;;17.80;5.97;;;20.60;60.30;;;;;;5034537;28;20109;-60
2024/01/27 01:03:26;;;;;;;19.02;5.32;;;20.60;58.50;;;;;;5038136;28;20029;-58
2024/01/27 01:05:52;;;;;;;15.93;5.15;;;20.60;57.90;;;;;;5032743;28;20072;-59
2024/01/27 01:08:18;;;;;;;19.73;5.13;;;20.60;56.90;;;;;;5014895;28;20052;-60
2024/01/27 01:10:44;;;;;;;17.73;4.85;;;20.60;56.30;;;;;;5032717;28;20029;-59
2024/01/27 01:13:10;;;;;;;17.98;4.85;;;20.60;57.10;;;;;;5032755;28;20024;-57
2024/01/27 01:15:36;;;;;;;18.08;4.90;;;20.50;58.20;;;;;;5032707;28;20033;-60
2024/01/27 01:18:02;;;;;;;16.85;5.03;;;20.50;58.30;;;;;;5033997;28;20405;-59
2024/01/27 01:20:29;;;;;;;17.73;4.82;;;20.50;58.70;;;;;;5037815;28;20025;-58
2024/01/27 01:22:55;;;;;;;16.70;5.25;;;20.50;58.80;;;;;;5032635;28;20021;-60
2024/01/27 01:25:21;;;;;;;18.13;4.80;;;20.50;58.10;;;;;;5032737;28;20078;-60
2024/01/27 01:27:49;;;;;;;21.70;5.07;;;20.50;58.60;;;;;;5030312;28;20028;-59
2024/01/27 01:30:16;;;;;;;15.98;4.28;;;20.50;58.40;;;;;;5023825;28;20025;-60
2024/01/27 01:32:42;;;;;;;24.63;7.70;;;20.60;59.40;;;;;;5032325;28;20022;-60
2024/01/27 01:35:10;;;;;;;29.95;8.85;;;20.60;59.40;;;;;;5039426;28;20052;-57
2024/01/27 01:37:35;;;;;;;25.48;7.80;;;20.60;59.70;;;;;;5031410;28;20032;-57
2024/01/27 01:40:02;;;;;;;28.90;9.15;;;20.60;59.40;;;;;;5031201;28;20033;-60
2024/01/27 01:42:29;;;;;;;30.63;9.38;;;20.60;59.20;;;;;;5032350;28;20408;-60
2024/01/27 01:44:55;;;;;;;24.58;8.63;;;20.60;59.10;;;;;;5032110;28;20112;-57
2024/01/27 01:47:22;;;;;;;29.48;8.30;;;20.60;58.80;;;;;;5031800;28;20021;-58
2024/01/27 01:49:48;;;;;;;24.05;6.97;;;20.60;58.80;;;;;;5014367;28;20505;-60
2024/01/27 01:52:19;;;;;;;24.52;8.40;;;20.50;58.40;;;;;;5034949;28;20538;-60
2024/01/27 01:54:50;;;;;;;22.92;7.45;;;20.50;58.60;;;;;;5029459;28;20132;-59
2024/01/27 01:57:16;;;;;;;21.17;7.38;;;20.50;58.30;;;;;;5030930;28;20021;-60
2024/01/27 01:59:42;;;;;;;22.35;7.32;;;20.50;58.00;;;;;;5031479;28;20030;-59
2024/01/27 02:02:08;;;;;;;24.33;6.72;;;20.50;58.20;;;;;;5031834;28;20022;-57
2024/01/27 02:04:45;;;;;;;21.05;6.57;;;20.50;58.40;;;;;;5031821;28;20035;-59
2024/01/27 02:07:11;;;;;;;20.15;5.70;;;20.50;58.40;;;;;;5024558;28;20021;-56
2024/01/27 02:09:37;;;;;;;18.27;6.10;;;20.50;58.30;;;;;;5029722;28;20091;-58
2024/01/27 02:12:04;;;;;;;19.23;6.53;;;20.50;58.20;;;;;;5030858;28;20057;-59
2024/01/27 02:14:30;;;;;;;19.42;5.85;;;20.50;58.30;;;;;;5031122;28;20021;-58
2024/01/27 02:16:56;;;;;;;15.93;5.93;;;20.40;58.10;;;;;;5030912;28;20030;-58
2024/01/27 02:19:23;;;;;;;20.15;6.40;;;20.50;58.00;;;;;;5030557;28;20476;-59
2024/01/27 02:21:48;;;;;;;19.35;6.00;;;20.50;58.00;;;;;;5030642;28;20037;-59
2024/01/27 02:24:14;;;;;;;19.50;5.78;;;20.40;57.80;;;;;;5030908;28;20033;-59
2024/01/27 02:26:40;;;;;;;20.98;5.70;;;20.40;57.80;;;;;;5030724;28;20108;-59
2024/01/27 02:29:06;;;;;;;20.05;5.38;;;20.40;57.60;;;;;;5030477;28;20538;-59
2024/01/27 02:31:32;;;;;;;16.88;5.70;;;20.40;57.90;;;;;;5013658;28;20108;-56
2024/01/27 02:33:57;;;;;;;16.75;5.20;;;20.40;57.80;;;;;;5029086;28;20135;-58
2024/01/27 02:36:23;;;;;;;17.00;5.47;;;20.40;57.80;;;;;;5047035;23;20050;-56
2024/01/27 02:38:49;;;;;;;20.33;5.57;;;20.40;57.60;;;;;;5027488;28;20049;-51
2024/01/27 02:41:15;;;;;;;19.50;5.72;;;20.40;57.60;;;;;;5027868;28;20423;-52
2024/01/27 02:43:41;;;;;;;18.83;4.57;;;20.40;57.60;;;;;;5030881;28;20018;-51
2024/01/27 02:46:12;;;;;;;14.75;5.03;;;20.40;57.50;;;;;;5025455;28;20044;-51
2024/01/27 02:48:44;;;;;;;15.13;4.97;;;20.40;57.40;;;;;;5029302;28;20037;-51
2024/01/27 02:51:09;;;;;;;14.80;5.05;;;20.40;57.20;;;;;;5022666;28;20026;-51
2024/01/27 02:53:35;;;;;;;19.92;4.72;;;20.40;57.10;;;;;;5030309;28;20029;-51
2024/01/27 02:56:01;;;;;;;13.00;4.32;;;20.40;56.90;;;;;;5029949;28;20030;-53
2024/01/27 02:58:27;;;;;;;14.27;4.68;;;20.40;57.10;;;;;;5030026;28;20022;-55
2024/01/27 03:00:53;;;;;;;14.88;4.47;;;20.40;57.40;;;;;;5029917;28;20033;-53
2024/01/27 03:03:19;;;;;;;16.83;5.38;;;20.40;57.10;;;;;;5030935;28;20109;-53
2024/01/27 03:05:45;;;;;;;18.40;4.80;;;20.40;57.10;;;;;;5031114;28;20032;-50
2024/01/27 03:08:10;;;;;;;13.77;4.22;;;20.40;57.30;;;;;;5030686;28;20026;-50
2024/01/27 03:10:36;;;;;;;14.68;4.30;;;20.40;57.10;;;;;;5031143;28;20025;-51
2024/01/27 03:13:02;;;;;;;19.20;4.88;;;20.40;57.00;;;;;;5030379;28;20053;-57
2024/01/27 03:15:28;;;;;;;21.55;5.20;;;20.40;57.20;;;;;;5030112;28;20045;-53
2024/01/27 03:17:54;;;;;;;14.45;4.25;;;20.40;57.00;;;;;;5029712;28;20021;-50
2024/01/27 03:20:20;;;;;;;15.70;4.10;;;20.40;56.70;;;;;;5030994;28;20022;-51
2024/01/27 03:22:46;;;;;;;20.05;5.63;;;20.40;56.70;;;;;;5029884;28;20484;-48
2024/01/27 03:25:11;;;;;;;13.90;4.40;;;20.40;57.20;;;;;;5030334;28;20481;-51
2024/01/27 03:27:37;;;;;;;15.35;4.75;;;20.40;57.20;;;;;;5028769;28;20101;-53
2024/01/27 03:30:04;;;;;;;14.95;4.45;;;20.40;57.10;;;;;;5030262;28;20068;-55
2024/01/27 03:32:34;;;;;;;11.88;4.10;;;20.40;57.40;;;;;;5029651;28;20552;-55
2024/01/27 03:35:00;;;;;;;24.80;4.45;;;20.40;57.20;;;;;;5037966;28;20033;-55
2024/01/27 03:37:26;;;;;;;14.32;3.92;;;20.40;56.80;;;;;;5029191;28;20120;-51
2024/01/27 03:39:52;;;;;;;13.85;3.92;;;20.40;57.20;;;;;;5029851;28;20029;-53
2024/01/27 03:42:18;;;;;;;12.05;4.30;;;20.40;56.60;;;;;;5030812;28;20068;-54
2024/01/27 03:44:44;;;;;;;13.73;4.20;;;20.40;56.90;;;;;;5030028;28;20033;-55
2024/01/27 03:47:10;;;;;;;13.95;4.30;;;20.40;56.60;;;;;;5030036;28;20026;-57
2024/01/27 03:49:36;;;;;;;15.18;3.97;;;20.40;56.40;;;;;;5028634;28;20504;-56
2024/01/27 03:52:02;;;;;;;14.07;4.03;;;20.40;56.60;;;;;;5030682;28;20061;-55
2024/01/27 03:54:27;;;;;;;15.32;3.75;;;20.40;56.70;;;;;;5028966;28;20148;-57
2024/01/27 03:56:54;;;;;;;14.82;4.22;;;20.40;56.50;;;;;;5030370;28;20033;-54
2024/01/27 03:59:20;;;;;;;12.43;3.95;;;20.40;57.10;;;;;;5028552;28;20029;-52
2024/01/27 04:01:46;;;;;;;12.57;3.92;;;20.40;56.80;;;;;;5029196;28;20026;-52
2024/01/27 04:04:12;;;;;;;14.98;3.92;;;20.40;56.30;;;;;;5034010;28;20064;-51
2024/01/27 04:06:41;;;;;;;12.75;4.03;;;20.40;56.70;;;;;;5033958;28;20033;-50
2024/01/27 04:09:10;;;;;;;10.52;3.58;;;20.40;56.50;;;;;;5032604;28;20404;-54
2024/01/27 04:11:37;;;;;;;13.20;3.78;;;20.40;56.80;;;;;;5033924;28;20510;-52
2024/01/27 04:14:04;;;;;;;10.23;3.40;;;20.40;56.70;;;;;;5033759;28;20034;-51
2024/01/27 04:16:30;;;;;;;9.38;3.65;;;20.40;56.30;;;;;;5033754;28;20029;-52
2024/01/27 04:18:56;;;;;;;12.10;3.78;;;20.40;56.30;;;;;;5032896;28;20033;-55
2024/01/27 04:21:22;;;;;;;12.63;4.32;;;20.40;57.20;;;;;;5033107;28;20018;-57
2024/01/27 04:23:48;;;;;;;14.50;4.03;;;20.40;56.80;;;;;;5033000;28;20029;-57
2024/01/27 04:26:14;;;;;;;12.10;3.72;;;20.40;56.50;;;;;;5032560;28;20022;-57
2024/01/27 04:28:40;;;;;;;12.52;4.15;;;20.40;56.10;;;;;;5031535;28;20496;-56
2024/01/27 04:31:06;;;;;;;13.20;4.00;;;20.40;55.80;;;;;;5032854;28;20025;-58
2024/01/27 04:33:32;;;;;;;14.95;4.13;;;20.40;56.50;;;;;;5032455;28;20024;-55
2024/01/27 04:35:58;;;;;;;11.45;3.60;;;20.40;56.10;;;;;;5033495;28;20033;-55
2024/01/27 04:38:24;;;;;;;9.65;3.17;;;20.40;56.40;;;;;;5015174;28;20038;-57
2024/01/27 04:40:50;;;;;;;8.80;3.45;;;20.40;56.00;;;;;;5033362;28;20030;-57
2024/01/27 04:43:17;;;;;;;11.07;3.40;;;20.40;55.80;;;;;;5032649;28;20017;-55
2024/01/27 04:45:44;;;;;;;11.43;3.70;;;20.40;56.50;;;;;;5033448;28;20034;-56
2024/01/27 04:48:10;;;;;;;10.15;3.60;;;20.40;56.20;;;;;;5031283;28;20108;-54
2024/01/27 04:50:36;;;;;;;15.38;4.22;;;20.40;56.30;;;;;;5032966;28;20480;-51
2024/01/27 04:53:01;;;;;;;8.07;3.17;;;20.30;57.70;;;;;;5032625;28;20025;-53
2024/01/27 04:55:27;;;;;;;12.23;3.80;;;20.40;56.50;;;;;;5032416;28;20030;-55
2024/01/27 04:57:53;;;;;;;14.02;4.55;;;20.30;57.10;;;;;;5031188;28;20025;-55
2024/01/27 05:00:19;;;;;;;15.30;3.83;;;20.30;56.20;;;;;;5026149;28;20025;-56
2024/01/27 05:02:46;;;;;;;13.25;3.92;;;20.30;56.40;;;;;;5031805;28;20393;-57
2024/01/27 05:05:12;;;;;;;12.80;3.53;;;20.30;57.30;;;;;;5031096;28;20024;-55
2024/01/27 05:07:38;;;;;;;12.77;3.90;;;20.30;55.80;;;;;;5032301;28;20025;-58
2024/01/27 05:10:05;;;;;;;11.52;3.88;;;20.30;55.80;;;;;;5029348;28;20104;-58
2024/01/27 05:12:31;;;;;;;12.18;3.47;;;20.30;56.20;;;;;;5032263;28;20032;-52
2024/01/27 05:14:56;;;;;;;11.05;3.55;;;20.30;56.40;;;;;;5032184;28;20029;-51
2024/01/27 05:17:22;;;;;;;10.65;3.58;;;20.30;56.20;;;;;;5031735;28;20133;-50
2024/01/27 05:19:50;;;;;;;11.80;3.70;;;20.30;56.60;;;;;;5031902;28;20038;-55
2024/01/27 05:22:15;;;;;;;10.77;3.58;;;20.30;56.30;;;;;;5032796;28;20036;-56
2024/01/27 05:24:41;;;;;;;11.90;3.90;;;20.30;57.30;;;;;;5031692;28;20022;-54
2024/01/27 05:27:07;;;;;;;8.60;3.20;;;20.30;57.50;;;;;;5032101;28;20060;-55
2024/01/27 05:29:33;;;;;;;12.95;3.78;;;20.30;57.50;;;;;;5030688;28;20029;-52
2024/01/27 05:31:58;;;;;;;13.18;3.72;;;20.30;57.30;;;;;;5032845;28;20032;-53
2024/01/27 05:34:24;;;;;;;10.68;3.40;;;20.30;57.60;;;;;;5031752;28;20473;-57
2024/01/27 05:36:50;;;;;;;9.77;3.47;;;20.30;57.30;;;;;;5031444;28;20374;-57
2024/01/27 05:39:16;;;;;;;9.98;3.72;;;20.30;57.50;;;;;;5031859;28;20384;-58
2024/01/27 05:41:41;;;;;;;11.23;3.55;;;20.30;58.00;;;;;;5032380;28;20216;-57
2024/01/27 05:44:07;;;;;;;9.88;3.47;;;20.30;57.50;;;;;;5031471;28;20083;-57
2024/01/27 05:46:33;;;;;;;11.18;3.67;;;20.30;57.10;;;;;;5031645;28;20030;-57
2024/01/27 05:49:02;;;;;;;10.60;3.47;;;20.30;56.50;;;;;;5031234;28;20041;-57
2024/01/27 05:51:29;;;;;;;10.85;3.60;;;20.30;56.90;;;;;;5030720;28;20108;-56
2024/01/27 05:53:55;;;;;;;11.23;3.80;;;20.30;56.50;;;;;;5031353;28;20040;-57
2024/01/27 05:56:21;;;;;;;10.38;3.15;;;20.30;56.10;;;;;;5030865;28;20397;-56
2024/01/27 05:58:50;;;;;;;11.95;3.80;;;20.30;56.00;;;;;;5031123;28;20555;-58
2024/01/27 06:01:18;;;;;;;10.67;3.40;;;20.30;55.70;;;;;;5031076;28;20092;-57
2024/01/27 06:03:44;;;;;;;12.35;3.72;;;20.30;55.70;;;;;;5031351;28;20034;-52
2024/01/27 06:06:10;;;;;;;12.25;3.85;;;20.30;55.00;;;;;;5032021;28;20100;-54
2024/01/27 06:08:36;;;;;;;13.98;4.07;;;20.30;55.20;;;;;;5030950;28;20498;-52
2024/01/27 06:11:03;;;;;;;9.15;3.55;;;20.30;55.40;;;;;;5031853;28;20028;-55
2024/01/27 06:13:29;;;;;;;8.70;3.25;;;20.30;55.60;;;;;;5031230;28;20481;-53
2024/01/27 06:15:55;;;;;;;11.13;3.55;;;20.30;55.60;;;;;;5031003;28;20417;-55
2024/01/27 06:18:21;;;;;;;12.02;3.42;;;20.30;56.00;;;;;;5030332;28;20099;-56
2024/01/27 06:20:47;;;;;;;9.25;3.63;;;20.30;55.90;;;;;;5031408;28;20028;-51
2024/01/27 06:23:13;;;;;;;10.10;3.30;;;20.30;56.40;;;;;;5031675;28;20493;-54
2024/01/27 06:25:39;;;;;;;9.77;3.05;;;20.30;55.80;;;;;;5030453;28;20037;-55
2024/01/27 06:28:05;;;;;;;8.48;3.22;;;20.30;55.30;;;;;;5030217;28;20025;-57
2024/01/27 06:30:30;;;;;;;11.93;3.65;;;20.30;55.90;;;;;;5030911;28;20123;-52
2024/01/27 06:32:56;;;;;;;11.15;3.30;;;20.30;55.90;;;;;;5030436;28;20049;-52
2024/01/27 06:35:22;;;;;;;14.82;3.72;;;20.30;55.60;;;;;;5031436;28;20029;-56
2024/01/27 06:37:48;;;;;;;9.35;3.30;;;20.30;55.10;;;;;;5030919;28;20062;-52
2024/01/27 06:40:14;;;;;;;12.07;3.00;;;20.30;56.00;;;;;;5031341;28;20080;-54
2024/01/27 06:42:39;;;;;;;12.85;3.85;;;20.30;55.60;;;;;;5038866;28;20030;-54
2024/01/27 06:45:06;;;;;;;11.65;3.63;;;20.30;55.60;;;;;;5031330;28;20068;-53
2024/01/27 06:47:31;;;;;;;8.10;3.20;;;20.30;55.20;;;;;;5030357;28;20092;-53
2024/01/27 06:49:57;;;;;;;9.85;3.28;;;20.30;56.10;;;;;;5029676;28;20030;-56
2024/01/27 06:52:23;;;;;;;11.77;3.60;;;20.40;55.70;;;;;;5031416;28;20100;-55
2024/01/27 06:54:49;;;;;;;8.73;3.25;;;20.40;56.10;;;;;;5030249;28;20040;-55
2024/01/27 06:57:22;;;;;;;14.27;3.97;;;20.40;56.10;;;;;;5031255;28;20108;-53
2024/01/27 06:59:52;;;;;;;10.27;3.55;;;20.30;55.50;;;;;;5029980;28;20030;-55
2024/01/27 07:02:28;;;;;;;11.98;3.85;;;20.30;55.70;;;;;;5026509;28;20483;-53
2024/01/27 07:04:57;;;;;;;9.45;3.53;;;20.40;55.40;;;;;;5030053;28;20025;-57
2024/01/27 07:07:26;;;;;;;10.60;3.88;;;20.30;56.20;;;;;;5030763;28;20536;-54
2024/01/27 07:09:54;;;;;;;9.18;3.67;;;20.30;55.90;;;;;;5030323;28;20041;-56
2024/01/27 07:12:20;;;;;;;13.95;4.00;;;20.30;55.80;;;;;;5031178;28;20538;-52
2024/01/27 07:14:46;;;;;;;10.57;3.95;;;20.30;55.70;;;;;;5029835;28;20037;-58
2024/01/27 07:17:12;;;;;;;9.25;3.45;;;20.30;55.90;;;;;;5030147;28;20031;-57
2024/01/27 07:19:37;;;;;;;10.23;3.67;;;20.30;55.70;;;;;;5029715;28;20022;-56
2024/01/27 07:22:06;;;;;;;9.02;3.72;;;20.30;56.20;;;;;;5028954;28;20021;-49
2024/01/27 07:24:32;;;;;;;9.67;3.17;;;20.40;55.40;;;;;;5030288;28;20021;-53
2024/01/27 07:27:00;;;;;;;12.18;3.50;;;20.40;56.20;;;;;;5029633;28;20033;-57
2024/01/27 07:29:26;;;;;;;11.18;3.75;;;20.40;56.10;;;;;;5029655;28;20392;-55
2024/01/27 07:31:52;;;;;;;12.27;3.47;;;20.40;56.70;;;;;;5029872;28;20135;-56
2024/01/27 07:34:18;;;;;;;21.25;4.13;;;20.30;56.50;;;;;;5028985;28;20053;-54
2024/01/27 07:36:44;;;;;;;12.13;3.30;;;20.30;56.70;;;;;;5031253;28;20108;-57
2024/01/27 07:39:10;;;;;;;12.82;3.63;;;20.30;56.40;;;;;;5034174;28;20026;-56
2024/01/27 07:41:35;;;;;;;8.30;3.63;;;20.30;56.20;;;;;;5034634;28;20021;-57
2024/01/27 07:44:13;;;;;;;10.60;3.30;;;20.30;56.10;;;;;;5032563;28;20017;-51
2024/01/27 07:46:40;;;;;;;14.32;3.58;;;20.30;56.10;;;;;;5033839;28;20018;-50
2024/01/27 07:49:06;;;;;;;11.43;3.50;;;20.30;56.30;;;;;;5032616;28;20088;-56
2024/01/27 07:51:32;;;;;;;13.57;3.55;;;20.30;57.00;;;;;;5032863;28;20682;-49
2024/01/27 07:53:59;;;;;;;11.13;3.78;;;20.30;57.70;;;;;;5032764;28;20064;-54
2024/01/27 07:56:25;;;;;;;12.77;3.30;;;20.30;56.10;;;;;;5033140;28;20025;-55
2024/01/27 07:58:51;;;;;;;9.30;3.33;;;20.30;55.90;;;;;;5032950;28;20040;-55
2024/01/27 08:01:18;;;;;;;12.75;3.65;;;20.30;56.20;;;;;;5033219;28;20026;-54
2024/01/27 08:03:44;;;;;;;14.13;3.67;;;20.30;56.20;;;;;;5033645;28;20029;-53
2024/01/27 08:06:17;;;;;;;9.60;3.83;;;20.30;55.90;;;;;;5033053;28;20021;-54
2024/01/27 08:08:49;;;;;;;11.05;3.63;;;20.30;56.00;;;;;;5033891;28;20036;-50
2024/01/27 08:11:15;;;;;;;10.80;3.70;;;20.30;57.00;;;;;;5033155;28;20428;-50
2024/01/27 08:13:42;;;;;;;9.85;3.45;;;20.30;56.30;;;;;;5033282;28;20034;-56
2024/01/27 08:16:09;;;;;;;12.90;3.63;;;20.30;57.20;;;;;;5033254;28;20025;-53
2024/01/27 08:18:43;;;;;;;8.50;3.35;;;20.30;57.30;;;;;;5032462;28;20037;-58
2024/01/27 08:21:11;;;;;;;10.57;3.30;;;20.30;57.60;;;;;;5032017;28;20089;-57
2024/01/27 08:23:37;;;;;;;11.95;3.17;;;20.30;58.10;;;;;;5032920;28;20102;-53
2024/01/27 08:26:03;;;;;;;9.52;3.58;;;20.30;57.00;;;;;;5033705;28;20062;-55
2024/01/27 08:28:29;;;;;;;9.65;3.40;;;20.30;57.90;;;;;;5032394;28;20030;-55
2024/01/27 08:30:55;;;;;;;7.38;3.13;;;20.30;56.30;;;;;;5032221;28;20037;-56
2024/01/27 08:33:21;;;;;;;11.52;3.55;;;20.30;56.80;;;;;;5032905;28;20025;-57
2024/01/27 08:35:47;;;;;;;7.63;2.90;;;20.30;57.20;;;;;;5032744;28;20030;-52
2024/01/27 08:38:13;;;;;;;10.15;3.20;;;20.30;56.80;;;;;;5031345;28;20033;-57
2024/01/27 08:40:39;;;;;;;10.15;3.72;;;20.30;55.60;;;;;;5048488;28;20371;-57
2024/01/27 08:43:05;;;;;;;9.85;3.47;;;20.30;56.50;;;;;;5033287;28;20052;-57
2024/01/27 08:45:32;;;;;;;11.27;3.58;;;20.30;55.00;;;;;;5028024;28;20026;-53
2024/01/27 08:47:58;;;;;;;10.13;3.30;;;20.30;56.60;;;;;;5030907;28;20033;-57
2024/01/27 08:50:24;;;;;;;11.65;3.35;;;20.30;55.50;;;;;;5031621;28;20056;-55
2024/01/27 08:52:50;;;;;;;9.35;3.33;;;20.30;55.60;;;;;;5032516;28;20068;-54
2024/01/27 08:55:18;;;;;;;10.25;3.60;;;20.30;55.70;;;;;;4998576;28;20553;-54
2024/01/27 08:57:46;;;;;;;9.38;3.67;;;20.30;55.70;;;;;;5031857;28;20485;-55
2024/01/27 09:00:13;;;;;;;10.95;3.25;;;20.30;55.90;;;;;;5031962;28;20037;-58
2024/01/27 09:02:39;;;;;;;8.90;3.33;;;20.30;56.30;;;;;;5031926;28;20021;-58
2024/01/27 09:05:05;;;;;;;8.65;3.33;;;20.30;56.20;;;;;;5031168;28;20017;-56
2024/01/27 09:07:31;;;;;;;8.70;3.05;;;20.30;55.30;;;;;;5032604;28;20477;-57
2024/01/27 09:09:57;;;;;;;11.75;3.33;;;20.30;55.40;;;;;;5032059;28;20078;-58
2024/01/27 09:12:23;;;;;;;9.32;3.38;;;20.30;56.10;;;;;;5032842;28;20511;-57
2024/01/27 09:14:49;;;;;;;11.00;3.35;;;20.30;55.50;;;;;;5032984;28;20026;-57
2024/01/27 09:17:14;;;;;;;10.18;3.10;;;20.30;54.70;;;;;;5031823;28;20017;-57
2024/01/27 09:19:40;;;;;;;12.88;3.10;;;20.30;55.60;;;;;;5030605;28;20084;-56
2024/01/27 09:22:06;;;;;;;11.45;3.97;;;20.30;55.90;;;;;;5032454;28;20013;-57
2024/01/27 09:24:32;;;;;;;8.32;3.50;;;20.30;56.10;;;;;;5032742;28;20025;-54
2024/01/27 09:26:58;;;;;;;11.52;3.88;;;20.30;55.20;;;;;;5014797;28;20118;-57
2024/01/27 09:29:23;;;;;;;16.05;4.68;;;20.30;54.90;;;;;;4982380;28;20034;-56
2024/01/27 09:31:49;;;;;;;16.05;4.57;;;20.30;52.70;;;;;;5030169;28;20116;-56
2024/01/27 09:34:15;;;;;;;18.10;4.88;;;20.10;51.40;;;;;;5032449;28;20029;-58
2024/01/27 09:36:41;;;;;;;18.33;5.80;;;19.90;46.40;;;;;;5014747;28;20572;-54
2024/01/27 09:39:07;;;;;;;21.05;5.45;;;19.70;44.70;;;;;;5032233;28;20037;-53
2024/01/27 09:41:33;;;;;;;112.13;13.48;;;19.60;44.10;;;;;;5031560;28;20105;-57
2024/01/27 09:44:04;;;;;;;43.10;6.88;;;19.50;45.90;;;;;;5029678;28;20109;-56
2024/01/27 09:46:31;;;;;;;72.07;9.63;;;19.50;46.00;;;;;;5026639;28;20049;-53
2024/01/27 09:48:57;;;;;;;42.65;7.47;;;19.60;48.00;;;;;;5013403;28;20036;-55
2024/01/27 09:51:23;;;;;;;61.85;7.43;;;19.70;48.50;;;;;;5031268;28;20108;-47
2024/01/27 09:53:51;;;;;;;34.13;6.45;;;19.80;50.10;;;;;;5030118;28;20032;-53
2024/01/27 09:56:21;;;;;;;29.55;6.13;;;19.80;49.10;;;;;;5031633;28;20053;-49
2024/01/27 09:58:49;;;;;;;32.00;7.07;;;19.80;49.50;;;;;;5030793;28;20031;-47
2024/01/27 10:01:19;;;;;;;35.50;6.97;;;19.90;49.90;;;;;;5027196;28;20022;-48
2024/01/27 10:03:47;;;;;;;30.85;6.20;;;19.90;50.30;;;;;;5033354;28;20030;-51
2024/01/27 10:06:14;;;;;;;25.70;6.30;;;19.90;50.50;;;;;;5030268;28;20025;-50
2024/01/27 10:08:43;;;;;;;37.72;6.38;;;19.90;50.70;;;;;;5030331;28;20120;-52
2024/01/27 10:11:09;;;;;;;25.25;6.30;;;20.00;51.00;;;;;;5031938;28;20420;-49
2024/01/27 10:13:36;;;;;;;29.73;5.72;;;20.00;51.10;;;;;;5032035;28;20053;-51
2024/01/27 10:16:09;;;;;;;29.92;6.18;;;20.00;51.40;;;;;;5031807;28;20068;-50
2024/01/27 10:18:35;;;;;;;20.42;5.30;;;20.00;51.50;;;;;;5031543;28;20083;-50
2024/01/27 10:21:15;;;;;;;22.52;5.63;;;20.10;51.90;;;;;;5031747;28;20116;-50
2024/01/27 10:23:41;;;;;;;22.25;5.20;;;20.10;52.10;;;;;;5031956;28;20116;-51
2024/01/27 10:26:09;;;;;;;20.45;5.68;;;20.10;52.30;;;;;;5031829;28;20053;-52
2024/01/27 10:28:35;;;;;;;24.97;5.63;;;20.10;52.50;;;;;;5031520;28;20060;-55
2024/01/27 10:31:11;;;;;;;24.90;5.85;;;20.10;52.60;;;;;;5031911;28;20472;-49
2024/01/27 10:33:37;;;;;;;17.17;5.22;;;20.10;52.70;;;;;;5031752;28;20021;-51
2024/01/27 10:36:03;;;;;;;26.35;5.63;;;20.10;52.70;;;;;;5031429;28;20034;-50
2024/01/27 10:38:39;;;;;;;21.33;5.25;;;20.10;52.80;;;;;;5031115;28;20026;-54
2024/01/27 10:41:11;;;;;;;22.23;4.82;;;20.10;52.80;;;;;;4997669;28;20074;-54
2024/01/27 10:43:39;;;;;;;14.70;4.90;;;20.10;52.60;;;;;;5031518;28;20072;-51
2024/01/27 10:46:08;;;;;;;19.00;5.00;;;20.10;52.80;;;;;;5031362;28;20044;-54
2024/01/27 10:48:37;;;;;;;20.05;5.38;;;20.10;53.10;;;;;;5031323;28;20038;-52
2024/01/27 10:51:10;;;;;;;23.65;4.97;;;20.10;53.30;;;;;;5031453;28;20031;-52
2024/01/27 10:53:37;;;;;;;17.15;5.25;;;20.10;53.50;;;;;;5031325;28;20029;-51
2024/01/27 10:56:09;;;;;;;29.77;5.35;;;20.10;52.90;;;;;;5031207;28;20075;-52
2024/01/27 10:58:41;;;;;;;21.00;5.47;;;20.10;53.10;;;;;;5030954;28;20030;-50
2024/01/27 11:01:11;;;;;;;17.05;5.05;;;20.20;52.80;;;;;;5031398;28;20040;-51
2024/01/27 11:03:41;;;;;;;19.23;5.18;;;20.20;53.00;;;;;;5031335;28;20607;-48
2024/01/27 11:06:08;;;;;;;17.98;4.70;;;20.30;53.60;;;;;;5031250;28;20017;-52
2024/01/27 11:08:34;;;;;;;18.40;5.13;;;20.30;54.20;;;;;;5031009;28;20070;-55
2024/01/27 11:11:01;;;;;;;19.00;4.93;;;20.30;54.40;;;;;;5032479;28;20041;-49
2024/01/27 11:13:33;;;;;;;18.25;4.88;;;20.30;54.10;;;;;;5017602;28;20033;-53
2024/01/27 11:15:59;;;;;;;17.77;5.40;;;20.30;53.90;;;;;;5035367;28;20675;-54
2024/01/27 11:18:27;;;;;;;17.48;5.20;;;20.30;53.90;;;;;;5017029;28;20030;-53
2024/01/27 11:20:54;;;;;;;17.10;4.85;;;20.30;54.10;;;;;;5035170;28;20033;-53
2024/01/27 11:23:19;;;;;;;18.80;5.22;;;20.40;55.40;;;;;;5035153;28;20044;-50
2024/01/27 11:25:45;;;;;;;19.10;4.75;;;20.40;55.50;;;;;;5035041;28;20022;-51
2024/01/27 11:28:16;;;;;;;16.50;5.03;;;20.40;57.40;;;;;;5034655;28;20056;-48
2024/01/27 11:30:46;;;;;;;17.27;5.47;;;20.40;55.30;;;;;;5035123;28;20029;-52
2024/01/27 11:33:12;;;;;;;23.13;5.53;;;20.40;56.90;;;;;;5030724;28;20068;-49
2024/01/27 11:35:38;;;;;;;25.50;5.15;;;20.40;58.00;;;;;;5015797;28;20037;-50
2024/01/27 11:38:04;;;;;;;22.88;5.53;;;20.50;57.60;;;;;;5028963;28;20033;-52
2024/01/27 11:40:30;;;;;;;23.98;5.60;;;20.40;57.80;;;;;;5029981;28;20117;-54
2024/01/27 11:43:01;;;;;;;17.75;5.22;;;20.40;58.10;;;;;;5029988;28;20382;-54
2024/01/27 11:45:30;;;;;;;18.13;5.22;;;20.30;58.10;;;;;;5031442;28;20017;-52
2024/01/27 11:47:57;;;;;;;20.77;5.25;;;20.30;57.90;;;;;;5031524;28;20082;-55
2024/01/27 11:50:23;;;;;;;16.58;4.85;;;20.30;57.70;;;;;;5032061;28;20092;-50
2024/01/27 11:52:49;;;;;;;16.60;4.72;;;20.30;57.60;;;;;;5031579;28;20040;-56
2024/01/27 11:55:15;;;;;;;14.88;4.60;;;20.30;57.50;;;;;;5031318;28;20025;-54
2024/01/27 11:57:42;;;;;;;16.08;4.57;;;20.30;57.20;;;;;;5031356;28;20037;-56
2024/01/27 12:00:11;;;;;;;19.13;4.93;;;20.30;57.20;;;;;;5031234;28;20032;-51
2024/01/27 12:02:41;;;;;;;15.67;5.07;;;20.30;57.00;;;;;;5032374;28;20433;-52
2024/01/27 12:05:08;;;;;;;;;;;20.30;57.30;;;;;;5030308;28;20029;-55
2024/01/27 12:07:34;;;;;;;17.08;4.53;;;20.40;57.10;;;;;;5030978;28;19913;-53
2024/01/27 12:09:59;;;;;;;16.92;4.88;;;20.40;56.80;;;;;;5031067;28;20101;-53
2024/01/27 12:12:25;;;;;;;14.80;4.63;;;20.40;57.00;;;;;;5031255;28;20409;-52
2024/01/27 12:14:51;;;;;;;37.40;5.28;;;20.40;56.80;;;;;;5031200;28;20060;-55
2024/01/27 12:17:19;;;;;;;17.60;5.03;;;20.50;56.80;;;;;;5031870;28;20143;-52
2024/01/27 12:19:55;;;;;;;18.50;5.13;;;20.50;56.70;;;;;;5030634;28;20063;-55
2024/01/27 12:22:26;;;;;;;20.33;4.70;;;20.50;56.60;;;;;;5030409;28;20029;-54
2024/01/27 12:24:56;;;;;;;18.88;4.82;;;20.50;56.40;;;;;;5030907;28;20044;-51
2024/01/27 12:27:22;;;;;;;;;;;20.50;56.30;;;;;;5032997;28;20044;-52
2024/01/27 12:29:51;;;;;;;19.33;4.97;;;20.50;56.20;;;;;;5033639;28;19909;-52
2024/01/27 12:32:18;;;;;;;25.95;4.93;;;20.50;56.50;;;;;;5025533;28;20032;-53
2024/01/27 12:34:45;;;;;;;19.65;5.03;;;20.50;56.30;;;;;;5030820;28;20029;-54